createdAt,value
2022-11-21T00:01:35.012Z,97551.38
2022-11-21T00:06:34.038Z,97553.72
2022-11-21T00:09:00.788Z,97556.91
2022-11-21T00:11:27.453Z,97548.09
2022-11-21T00:13:54.207Z,97548.94
2022-11-21T00:16:20.926Z,97544.81
2022-11-21T00:21:20.780Z,97547.44
2022-11-21T00:23:48.057Z,97537.59
2022-11-21T00:26:16.460Z,97539.81
2022-11-21T00:28:43.074Z,97535.19
2022-11-21T00:31:09.923Z,97533.81
2022-11-21T00:33:37.246Z,97537.09
2022-11-21T00:36:10.472Z,97528.56
2022-11-21T00:38:37.866Z,97528.56
2022-11-21T00:41:05.232Z,97530.09
2022-11-21T00:43:32.303Z,97533.25
2022-11-21T00:46:01.551Z,97536.16
2022-11-21T00:48:29.591Z,97521.84
2022-11-21T00:50:56.658Z,97509.47
2022-11-21T00:53:23.303Z,97509.88
2022-11-21T00:55:49.949Z,97485.84
2022-11-21T00:58:16.673Z,97491.44
2022-11-21T01:00:43.388Z,97488.28
2022-11-21T01:03:10.071Z,97484.31
2022-11-21T01:05:36.720Z,97486.72
2022-11-21T01:08:03.428Z,97487.88
2022-11-21T01:10:30.261Z,97489.50
2022-11-21T01:12:57.006Z,97492.00
2022-11-21T01:15:23.799Z,97499.66
2022-11-21T01:17:50.403Z,97506.66
2022-11-21T01:20:17.151Z,97502.78
2022-11-21T01:22:43.879Z,97500.03
2022-11-21T01:27:41.836Z,97491.19
2022-11-21T01:30:08.922Z,97484.16
2022-11-21T01:32:35.599Z,97490.59
2022-11-21T01:35:02.234Z,97492.00
2022-11-21T01:37:29.036Z,97486.19
2022-11-21T01:39:55.752Z,97484.75
2022-11-21T01:42:22.470Z,97487.81
2022-11-21T01:44:51.820Z,97482.81
2022-11-21T01:47:18.648Z,97485.16
2022-11-21T01:49:47.102Z,97478.94
2022-11-21T01:52:28.369Z,97473.03
2022-11-21T01:55:03.087Z,97469.06
2022-11-21T01:57:41.233Z,97472.91
2022-11-21T02:00:14.565Z,97474.22
2022-11-21T02:02:48.482Z,97475.44
2022-11-21T02:05:22.629Z,97474.50
2022-11-21T02:07:50.347Z,97477.56
2022-11-21T02:10:17.308Z,97475.03
2022-11-21T02:12:50.040Z,97470.41
2022-11-21T02:15:18.688Z,97466.56
2022-11-21T02:17:45.503Z,97471.63
2022-11-21T02:20:17.811Z,97470.16
2022-11-21T02:23:03.094Z,97469.44
2022-11-21T02:25:32.541Z,97469.91
2022-11-21T02:28:02.990Z,97467.59
2022-11-21T02:30:32.085Z,97475.56
2022-11-21T02:32:59.284Z,97471.94
2022-11-21T02:35:26.102Z,97475.06
2022-11-21T02:38:24.201Z,97466.81
2022-11-21T02:40:58.684Z,97460.53
2022-11-21T02:43:48.012Z,97470.56
2022-11-21T02:46:14.617Z,97461.06
2022-11-21T02:48:41.644Z,97463.72
2022-11-21T02:53:42.657Z,97455.53
2022-11-21T02:56:09.445Z,97456.59
2022-11-21T02:58:36.443Z,97450.50
2022-11-21T03:01:03.189Z,97446.78
2022-11-21T03:03:29.926Z,97437.19
2022-11-21T03:05:57.044Z,97449.69
2022-11-21T03:08:23.706Z,97442.69
2022-11-21T03:10:50.426Z,97445.81
2022-11-21T03:13:17.095Z,97433.00
2022-11-21T03:15:43.739Z,97434.28
2022-11-21T03:18:10.396Z,97430.97
2022-11-21T03:20:37.085Z,97427.28
2022-11-21T03:23:04.367Z,97425.28
2022-11-21T03:25:31.493Z,97420.78
2022-11-21T03:27:58.204Z,97427.16
2022-11-21T03:30:26.455Z,97420.72
2022-11-21T03:32:56.180Z,97420.25
2022-11-21T03:35:23.012Z,97422.72
2022-11-21T03:37:49.804Z,97416.00
2022-11-21T03:40:16.585Z,97416.88
2022-11-21T03:42:43.374Z,97410.25
2022-11-21T03:45:10.203Z,97418.72
2022-11-21T03:47:36.893Z,97416.44
2022-11-21T03:50:03.896Z,97428.63
2022-11-21T03:52:30.625Z,97417.09
2022-11-21T03:54:57.261Z,97408.75
2022-11-21T03:57:23.980Z,97408.47
2022-11-21T03:59:50.620Z,97414.31
2022-11-21T04:02:17.336Z,97414.31
2022-11-21T04:04:43.982Z,97420.13
2022-11-21T04:07:10.705Z,97411.31
2022-11-21T04:09:37.427Z,97416.00
2022-11-21T04:12:07.766Z,97414.38
2022-11-21T04:14:35.064Z,97417.31
2022-11-21T04:17:01.901Z,97413.03
2022-11-21T04:22:07.178Z,97411.88
2022-11-21T04:24:33.847Z,97416.41
2022-11-21T04:27:00.463Z,97402.66
2022-11-21T04:29:27.132Z,97408.66
2022-11-21T04:31:53.784Z,97396.06
2022-11-21T04:34:20.419Z,97394.06
2022-11-21T04:36:47.112Z,97391.78
2022-11-21T04:39:13.876Z,97395.63
2022-11-21T04:41:40.548Z,97396.84
2022-11-21T04:44:07.327Z,97398.28
2022-11-21T04:46:34.016Z,97393.88
2022-11-21T04:49:00.747Z,97397.84
2022-11-21T04:51:27.425Z,97394.84
2022-11-21T04:53:54.065Z,97392.88
2022-11-21T04:56:20.687Z,97390.03
2022-11-21T04:58:47.429Z,97392.00
2022-11-21T05:01:14.128Z,97402.75
2022-11-21T05:03:40.848Z,97396.53
2022-11-21T05:06:07.555Z,97403.88
2022-11-21T05:08:34.190Z,97405.91
2022-11-21T05:11:19.540Z,97397.88
2022-11-21T05:13:46.173Z,97406.13
2022-11-21T05:16:12.830Z,97407.69
2022-11-21T05:18:39.486Z,97402.97
2022-11-21T05:21:06.173Z,97398.78
2022-11-21T05:26:06.380Z,97403.13
2022-11-21T05:28:33.002Z,97405.53
2022-11-21T05:30:59.632Z,97407.47
2022-11-21T05:33:26.280Z,97410.88
2022-11-21T05:35:52.906Z,97405.53
2022-11-21T05:38:19.541Z,97409.78
2022-11-21T05:40:46.179Z,97417.19
2022-11-21T05:43:31.341Z,97417.03
2022-11-21T05:45:57.962Z,97424.22
2022-11-21T05:48:24.916Z,97423.06
2022-11-21T05:50:51.554Z,97422.94
2022-11-21T05:53:18.610Z,97424.75
2022-11-21T05:55:45.512Z,97424.59
2022-11-21T05:58:12.549Z,97427.28
2022-11-21T06:00:39.351Z,97433.19
2022-11-21T06:03:25.420Z,97422.69
2022-11-21T06:05:52.146Z,97423.47
2022-11-21T06:08:19.033Z,97419.56
2022-11-21T06:10:45.762Z,97426.63
2022-11-21T06:13:24.377Z,97420.66
2022-11-21T06:16:06.338Z,97431.56
2022-11-21T06:18:35.872Z,97417.19
2022-11-21T06:21:04.949Z,97418.16
2022-11-21T06:23:31.806Z,97416.03
2022-11-21T06:26:00.195Z,97417.88
2022-11-21T06:31:05.510Z,97420.94
2022-11-21T06:33:33.205Z,97421.41
2022-11-21T06:36:11.088Z,97414.38
2022-11-21T06:38:37.992Z,97425.09
2022-11-21T06:41:11.718Z,97427.44
2022-11-21T06:43:39.296Z,97425.16
2022-11-21T06:46:06.176Z,97428.13
2022-11-21T06:48:34.028Z,97429.38
2022-11-21T06:51:21.909Z,97435.09
2022-11-21T06:53:56.559Z,97437.88
2022-11-21T06:58:59.638Z,97444.75
2022-11-21T07:01:26.995Z,97443.38
2022-11-21T07:03:54.527Z,97433.00
2022-11-21T07:06:21.641Z,97436.84
2022-11-21T07:09:00.051Z,97425.34
2022-11-21T07:11:35.719Z,97429.19
2022-11-21T07:14:07.720Z,97434.13
2022-11-21T07:16:35.770Z,97430.63
2022-11-21T07:19:02.388Z,97432.03
2022-11-21T07:21:29.027Z,97438.28
2022-11-21T07:23:55.688Z,97435.06
2022-11-21T07:26:22.357Z,97428.47
2022-11-21T07:28:48.993Z,97427.16
2022-11-21T07:31:15.619Z,97426.97
2022-11-21T07:33:46.957Z,97431.53
2022-11-21T07:36:13.802Z,97424.22
2022-11-21T07:38:41.909Z,97433.19
2022-11-21T07:41:09.342Z,97432.63
2022-11-21T07:43:35.973Z,97435.34
2022-11-21T07:46:02.698Z,97437.53
2022-11-21T07:48:29.413Z,97432.03
2022-11-21T07:50:56.069Z,97434.44
2022-11-21T07:53:22.721Z,97438.28
2022-11-21T07:55:49.424Z,97447.69
2022-11-21T07:58:16.983Z,97436.63
2022-11-21T08:00:43.836Z,97446.34
2022-11-21T08:03:12.611Z,97446.25
2022-11-21T08:05:41.729Z,97443.25
2022-11-21T08:08:09.546Z,97441.09
2022-11-21T08:10:44.537Z,97445.88
2022-11-21T08:15:43.438Z,97458.72
2022-11-21T08:18:11.383Z,97452.66
2022-11-21T08:20:38.340Z,97451.75
2022-11-21T08:23:06.303Z,97446.09
2022-11-21T08:25:42.977Z,97440.47
2022-11-21T08:28:11.807Z,97432.53
2022-11-21T08:30:39.024Z,97438.34
2022-11-21T08:33:06.093Z,97444.31
2022-11-21T08:35:32.845Z,97447.31
2022-11-21T08:38:01.063Z,97442.63
2022-11-21T08:40:30.116Z,97444.41
2022-11-21T08:43:09.721Z,97435.56
2022-11-21T08:45:37.967Z,97440.16
2022-11-21T08:48:05.005Z,97439.47
2022-11-21T08:50:32.270Z,97437.53
2022-11-21T08:55:34.020Z,97432.53
2022-11-21T08:58:00.712Z,97427.00
2022-11-21T09:00:27.615Z,97424.44
2022-11-21T09:02:54.372Z,97424.63
2022-11-21T09:05:21.195Z,97424.88
2022-11-21T09:10:25.591Z,97424.28
2022-11-21T09:12:52.331Z,97427.72
2022-11-21T09:15:37.316Z,97416.78
2022-11-21T09:18:05.082Z,97412.53
2022-11-21T09:20:34.506Z,97401.69
2022-11-21T09:23:09.527Z,97407.75
2022-11-21T09:28:10.815Z,97402.84
2022-11-21T09:30:37.575Z,97402.44
2022-11-21T09:33:06.630Z,97402.88
2022-11-21T09:35:33.273Z,97402.44
2022-11-21T09:38:00.397Z,97396.97
2022-11-21T09:40:29.876Z,97400.97
2022-11-21T09:43:30.391Z,97400.47
2022-11-21T09:46:13.789Z,97411.78
2022-11-21T09:48:58.496Z,97405.16
2022-11-21T09:51:27.365Z,97409.53
2022-11-21T09:54:05.830Z,97407.97
2022-11-21T09:56:38.263Z,97402.13
2022-11-21T09:59:19.949Z,97397.16
2022-11-21T10:01:47.172Z,97389.47
2022-11-21T10:04:13.930Z,97379.03
2022-11-21T10:07:06.969Z,97377.06
2022-11-21T10:10:04.812Z,97367.03
2022-11-21T10:12:48.569Z,97358.88
2022-11-21T10:15:29.526Z,97359.28
2022-11-21T10:18:38.555Z,97355.47
2022-11-21T10:21:28.328Z,97336.13
2022-11-21T10:24:22.356Z,97340.03
2022-11-21T10:27:00.326Z,97328.75
2022-11-21T10:29:39.201Z,97322.91
2022-11-21T10:34:59.351Z,97311.66
2022-11-21T10:37:35.525Z,97302.78
2022-11-21T10:40:13.936Z,97292.28
2022-11-21T10:42:51.741Z,97293.47
2022-11-21T10:45:19.553Z,97295.47
2022-11-21T10:47:48.586Z,97285.41
2022-11-21T10:50:47.223Z,97277.66
2022-11-21T10:56:14.660Z,97271.88
2022-11-21T10:58:43.700Z,97261.03
2022-11-21T11:01:23.924Z,97261.78
2022-11-21T11:04:27.343Z,97261.78
2022-11-21T11:06:56.418Z,97249.34
2022-11-21T11:09:34.073Z,97250.53
2022-11-21T11:12:19.038Z,97225.59
2022-11-21T11:14:51.916Z,97230.63
2022-11-21T11:17:28.312Z,97232.19
2022-11-21T11:20:32.990Z,97254.38
2022-11-21T11:22:59.679Z,97237.53
2022-11-21T11:25:26.483Z,97232.72
2022-11-21T11:27:53.194Z,97224.00
2022-11-21T11:30:20.011Z,97228.63
2022-11-21T11:32:46.612Z,97218.81
2022-11-21T11:35:17.344Z,97209.16
2022-11-21T11:38:00.868Z,97206.78
2022-11-21T11:40:38.399Z,97204.94
2022-11-21T11:43:40.081Z,97197.53
2022-11-21T11:46:37.255Z,97192.88
2022-11-21T11:49:20.779Z,97189.03
2022-11-21T11:51:57.289Z,97190.19
2022-11-21T11:54:29.625Z,97182.41
2022-11-21T11:56:57.762Z,97175.84
2022-11-21T11:59:31.917Z,97170.03
2022-11-21T12:02:11.843Z,97163.09
2022-11-21T12:04:51.165Z,97174.38
2022-11-21T12:10:24.520Z,97156.63
2022-11-21T12:13:04.908Z,97145.69
2022-11-21T12:15:50.064Z,97142.56
2022-11-21T12:18:22.409Z,97146.09
2022-11-21T12:21:14.707Z,97139.91
2022-11-21T12:23:47.426Z,97136.78
2022-11-21T12:26:20.865Z,97126.31
2022-11-21T12:29:11.871Z,97117.31
2022-11-21T12:32:08.825Z,97111.47
2022-11-21T12:35:12.231Z,97108.75
2022-11-21T12:37:53.737Z,97100.97
2022-11-21T12:40:26.737Z,97092.81
2022-11-21T12:43:30.724Z,97090.47
2022-11-21T12:46:16.274Z,97088.91
2022-11-21T12:49:39.065Z,97087.34
2022-11-21T12:55:37.966Z,97077.25
2022-11-21T12:58:09.763Z,97073.31
2022-11-21T13:04:03.739Z,97061.09
2022-11-21T13:06:34.448Z,97045.88
2022-11-21T13:09:03.144Z,97049.66
2022-11-21T13:12:00.044Z,97036.44
2022-11-21T13:14:52.750Z,97031.38
2022-11-21T13:17:25.293Z,97029.38
2022-11-21T13:20:02.371Z,97012.25
2022-11-21T13:22:54.293Z,97008.78
2022-11-21T13:25:33.246Z,97009.97
2022-11-21T13:28:18.148Z,97011.91
2022-11-21T13:30:49.186Z,97004.16
2022-11-21T13:33:36.228Z,96999.50
2022-11-21T13:36:06.656Z,96997.47
2022-11-21T13:38:53.850Z,96997.47
2022-11-21T13:41:54.348Z,96989.75
2022-11-21T13:44:29.815Z,96993.56
2022-11-21T13:47:12.536Z,96981.97
2022-11-21T13:49:41.961Z,96983.13
2022-11-21T13:52:55.907Z,96978.88
2022-11-21T13:55:31.573Z,96976.44
2022-11-21T13:58:03.925Z,96968.69
2022-11-21T14:01:04.281Z,96965.63
2022-11-21T14:03:40.409Z,96970.31
2022-11-21T14:06:15.741Z,96961.41
2022-11-21T14:08:43.936Z,96961.78
2022-11-21T14:11:34.726Z,96950.91
2022-11-21T14:14:02.228Z,96943.16
2022-11-21T14:16:37.104Z,96927.53
2022-11-21T14:19:04.255Z,96931.44
2022-11-21T14:21:33.052Z,96928.72
2022-11-21T14:24:05.548Z,96921.34
2022-11-21T14:26:40.579Z,96926.47
2022-11-21T14:29:40.278Z,96920.66
2022-11-21T14:32:14.478Z,96914.81
2022-11-21T14:34:41.122Z,96908.97
2022-11-21T14:37:08.436Z,96914.81
2022-11-21T14:39:44.065Z,96911.31
2022-11-21T14:42:15.179Z,96906.28
2022-11-21T14:44:42.104Z,96902.09
2022-11-21T14:47:21.571Z,96906.00
2022-11-21T14:49:55.190Z,96897.56
2022-11-21T14:52:27.027Z,96897.94
2022-11-21T14:55:28.583Z,96883.56
2022-11-21T14:57:47.284Z,96873.47
2022-11-21T15:03:18.965Z,96867.25
2022-11-21T15:06:02.197Z,96860.25
2022-11-21T15:11:22.949Z,96841.22
2022-11-21T15:16:26.247Z,96820.63
2022-11-21T15:18:52.966Z,96817.53
2022-11-21T15:21:19.717Z,96804.31
2022-11-21T15:23:47.187Z,96809.75
2022-11-21T15:26:31.820Z,96788.34
2022-11-21T15:31:33.631Z,96772.44
2022-11-21T15:34:33.842Z,96768.56
2022-11-21T15:37:04.854Z,96764.66
2022-11-21T15:39:33.050Z,96770.91
2022-11-21T15:42:33.566Z,96753.81
2022-11-21T15:45:02.315Z,96749.53
2022-11-21T15:50:00.448Z,96727.38
2022-11-21T15:52:27.130Z,96717.66
2022-11-21T15:54:53.834Z,96717.25
2022-11-21T15:57:22.296Z,96713.81
2022-11-21T15:59:49.685Z,96718.06
2022-11-21T16:02:16.460Z,96709.53
2022-11-21T16:04:43.214Z,96698.66
2022-11-21T16:07:09.920Z,96699.41
2022-11-21T16:09:37.558Z,96692.44
2022-11-21T16:12:04.384Z,96690.53
2022-11-21T16:14:31.071Z,96678.84
2022-11-21T16:16:57.755Z,96690.13
2022-11-21T16:19:26.031Z,96685.50
2022-11-21T16:21:53.793Z,96686.63
2022-11-21T16:24:20.539Z,96674.22
2022-11-21T16:26:47.270Z,96670.34
2022-11-21T16:29:14.307Z,96668.78
2022-11-21T16:31:40.965Z,96655.19
2022-11-21T16:34:07.625Z,96650.94
2022-11-21T16:36:34.367Z,96645.13
2022-11-21T16:39:09.972Z,96649.00
2022-11-21T16:41:39.520Z,96636.97
2022-11-21T16:44:12.566Z,96624.91
2022-11-21T16:46:43.251Z,96621.44
2022-11-21T16:49:10.518Z,96609.81
2022-11-21T16:51:37.273Z,96607.06
2022-11-21T16:54:08.574Z,96600.47
2022-11-21T16:56:35.928Z,96607.06
2022-11-21T16:59:02.528Z,96613.63
2022-11-21T17:01:29.435Z,96600.09
2022-11-21T17:03:56.121Z,96612.50
2022-11-21T17:06:27.262Z,96615.59
2022-11-21T17:08:54.060Z,96619.44
2022-11-21T17:11:23.464Z,96608.56
2022-11-21T17:13:51.349Z,96604.34
2022-11-21T17:16:20.438Z,96594.22
2022-11-21T17:18:47.714Z,96597.31
2022-11-21T17:23:55.225Z,96584.91
2022-11-21T17:26:25.170Z,96582.56
2022-11-21T17:28:59.339Z,96579.03
2022-11-21T17:31:26.852Z,96570.88
2022-11-21T17:33:56.267Z,96562.75
2022-11-21T17:36:25.094Z,96564.69
2022-11-21T17:38:52.613Z,96568.16
2022-11-21T17:41:21.067Z,96550.00
2022-11-21T17:46:20.231Z,96573.94
2022-11-21T17:48:54.607Z,96567.00
2022-11-21T17:51:25.692Z,96553.03
2022-11-21T17:53:52.947Z,96527.91
2022-11-21T17:56:22.695Z,96508.53
2022-11-21T17:58:50.724Z,96502.72
2022-11-21T18:01:22.227Z,96511.56
2022-11-21T18:06:38.173Z,96537.53
2022-11-21T18:09:06.425Z,96530.19
2022-11-21T18:11:39.592Z,96532.13
2022-11-21T18:14:07.971Z,96537.22
2022-11-21T18:16:34.718Z,96522.84
2022-11-21T18:19:01.501Z,96520.16
2022-11-21T18:21:33.247Z,96516.69
2022-11-21T18:24:00.501Z,96512.03
2022-11-21T18:26:29.756Z,96507.34
2022-11-21T18:29:20.657Z,96506.25
2022-11-21T18:31:45.605Z,96512.44
2022-11-21T18:34:12.630Z,96509.34
2022-11-21T18:36:39.338Z,96514.00
2022-11-21T18:39:13.673Z,96506.63
2022-11-21T18:41:41.865Z,96501.59
2022-11-21T18:44:08.547Z,96493.84
2022-11-21T18:46:37.393Z,96502.38
2022-11-21T18:49:07.203Z,96503.56
2022-11-21T18:51:35.676Z,96496.19
2022-11-21T18:54:08.567Z,96499.69
2022-11-21T18:56:36.610Z,96498.53
2022-11-21T18:59:05.846Z,96495.81
2022-11-21T19:01:33.225Z,96496.97
2022-11-21T19:04:00.155Z,96493.47
2022-11-21T19:06:27.860Z,96483.75
2022-11-21T19:08:57.293Z,96482.22
2022-11-21T19:11:27.622Z,96488.06
2022-11-21T19:13:56.285Z,96486.09
2022-11-21T19:16:25.150Z,96485.31
2022-11-21T19:21:41.786Z,96478.75
2022-11-21T19:24:13.587Z,96480.31
2022-11-21T19:26:40.965Z,96474.13
2022-11-21T19:29:07.777Z,96472.94
2022-11-21T19:31:37.871Z,96470.25
2022-11-21T19:34:09.540Z,96459.41
2022-11-21T19:36:36.753Z,96457.44
2022-11-21T19:39:03.428Z,96454.75
2022-11-21T19:41:30.899Z,96455.91
2022-11-21T19:43:59.524Z,96453.94
2022-11-21T19:46:27.335Z,96450.09
2022-11-21T19:48:56.078Z,96438.88
2022-11-21T19:53:59.214Z,96433.81
2022-11-21T19:56:26.679Z,96437.31
2022-11-21T19:58:56.177Z,96443.50
2022-11-21T20:01:25.076Z,96441.94
2022-11-21T20:03:54.786Z,96442.34
2022-11-21T20:06:24.189Z,96436.91
2022-11-21T20:08:51.986Z,96434.97
2022-11-21T20:11:18.818Z,96434.97
2022-11-21T20:13:45.798Z,96430.72
2022-11-21T20:16:24.208Z,96434.19
2022-11-21T20:18:52.404Z,96427.59
2022-11-21T20:23:51.292Z,96424.91
2022-11-21T20:26:19.464Z,96429.56
2022-11-21T20:28:46.715Z,96423.38
2022-11-21T20:31:19.563Z,96432.66
2022-11-21T20:33:48.727Z,96436.53
2022-11-21T20:36:21.049Z,96438.06
2022-11-21T20:41:26.129Z,96436.91
2022-11-21T20:49:22.635Z,96448.53
2022-11-21T20:53:26.413Z,96446.97
2022-11-21T20:54:38.148Z,96453.97
2022-11-21T20:57:04.789Z,96450.47
2022-11-21T20:59:31.722Z,96451.63
2022-11-21T21:01:58.763Z,96454.34
2022-11-21T21:04:25.424Z,96447.38
2022-11-21T21:09:30.822Z,96440.03
2022-11-21T21:11:57.647Z,96434.19
2022-11-21T21:16:55.827Z,96437.69
2022-11-21T21:21:53.928Z,96434.19
2022-11-21T21:26:51.884Z,96430.31
2022-11-21T21:29:20.557Z,96428.78
2022-11-21T21:31:51.684Z,96418.69
2022-11-21T21:36:51.628Z,96402.78
2022-11-21T21:39:18.749Z,96392.34
2022-11-21T21:44:27.039Z,96412.50
2022-11-21T21:46:56.666Z,96414.81
2022-11-21T21:49:24.200Z,96410.19
2022-11-21T21:51:50.950Z,96412.88
2022-11-21T21:54:20.675Z,96422.56
2022-11-21T21:56:48.133Z,96412.09
2022-11-21T21:59:15.117Z,96405.50
2022-11-21T22:01:42.982Z,96406.22
2022-11-21T22:04:11.862Z,96382.63
2022-11-21T22:06:38.473Z,96393.88
2022-11-21T22:09:05.191Z,96395.81
2022-11-21T22:11:35.830Z,96401.59
2022-11-21T22:14:07.777Z,96401.63
2022-11-21T22:16:34.410Z,96412.47
2022-11-21T22:19:01.117Z,96408.59
2022-11-21T22:21:32.973Z,96410.91
2022-11-21T22:26:48.026Z,96415.56
2022-11-21T22:29:14.771Z,96405.47
2022-11-21T22:31:41.544Z,96408.56
2022-11-21T22:34:11.812Z,96408.19
2022-11-21T22:36:38.568Z,96420.63
2022-11-21T22:41:42.195Z,96421.75
2022-11-21T22:44:08.942Z,96422.16
2022-11-21T22:46:35.597Z,96414.00
2022-11-21T22:49:02.193Z,96413.63
2022-11-21T22:51:29.873Z,96416.28
2022-11-21T22:53:57.109Z,96416.69
2022-11-21T22:56:24.880Z,96411.66
2022-11-21T22:58:51.984Z,96406.22
2022-11-21T23:01:24.104Z,96409.75
2022-11-21T23:03:51.370Z,96417.88
2022-11-21T23:06:26.301Z,96420.97
2022-11-21T23:08:54.483Z,96412.81
2022-11-21T23:11:27.822Z,96419.03
2022-11-21T23:13:56.183Z,96418.66
2022-11-21T23:16:22.991Z,96412.44
2022-11-21T23:18:52.497Z,96415.56
2022-11-21T23:21:19.100Z,96410.88
2022-11-21T23:23:45.780Z,96406.22
2022-11-21T23:26:13.837Z,96398.47
2022-11-21T23:28:40.472Z,96396.19
2022-11-21T23:31:07.129Z,96389.94
2022-11-21T23:33:33.739Z,96384.94
2022-11-21T23:36:00.556Z,96373.31
2022-11-21T23:38:27.215Z,96365.97
2022-11-21T23:40:53.904Z,96356.72
2022-11-21T23:46:04.274Z,96362.88
2022-11-21T23:51:02.386Z,96359.78
2022-11-21T23:53:29.177Z,96362.91
2022-11-21T23:55:55.816Z,96366.34
2022-11-21T23:58:22.462Z,96366.75
